Terminal Aerodrome Forecast
Issued by NWS Charleston, WV

Current Version | Previous Version | Text Only | Print | Product List | Glossary Off
Versions: 1 2 3 4 5 6 7 8 9 10 11 12 13 14 15 16 17 18 19 20 21

000
FTUS41 KRLX 271120
TAFPKB
TAF
KPKB 271120Z 2712/2812 17004KT P6SM -SHRA OVC035
     FM271400 23005KT P6SM BKN025
     FM271800 24004KT 6SM SHRA VCTS BKN035CB
     FM280600 00000KT P6SM BKN015
     FM281000 00000KT P6SM BKN008=

USA.gov is the U.S. government's official web portal to all federal, state and local government web resources and services.